sensor_id;sensor_type;location;lat;lon;timestamp;pressure;altitude;pressure_sealevel;temperature;humidity
61136;BME280;47021;51.340;12.432;2023-12-07T00:08:49;100261.34;;;8.81;59.66
61136;BME280;47021;51.340;12.432;2023-12-07T00:11:22;100264.56;;;8.84;59.71
61136;BME280;47021;51.340;12.432;2023-12-07T00:19:21;100273.25;;;8.96;59.65
61136;BME280;47021;51.340;12.432;2023-12-07T00:55:27;100293.38;;;8.46;61.04
61136;BME280;47021;51.340;12.432;2023-12-07T01:20:01;100311.97;;;8.29;61.35
61136;BME280;47021;51.340;12.432;2023-12-07T01:22:37;100306.00;;;8.27;61.18
61136;BME280;47021;51.340;12.432;2023-12-07T01:27:53;100322.88;;;8.09;62.00
61136;BME280;47021;51.340;12.432;2023-12-07T01:30:24;100319.84;;;8.15;62.15
61136;BME280;47021;51.340;12.432;2023-12-07T01:38:33;100332.31;;;8.35;61.50
61136;BME280;47021;51.340;12.432;2023-12-07T01:41:16;100343.97;;;8.30;61.97
61136;BME280;47021;51.340;12.432;2023-12-07T01:43:49;100338.44;;;8.34;61.24
61136;BME280;47021;51.340;12.432;2023-12-07T01:46:23;100340.03;;;8.12;61.74
61136;BME280;47021;51.340;12.432;2023-12-07T01:48:58;100339.72;;;8.29;61.52
61136;BME280;47021;51.340;12.432;2023-12-07T01:51:56;100341.56;;;8.39;61.30
61136;BME280;47021;51.340;12.432;2023-12-07T01:54:38;100346.13;;;8.48;60.73
61136;BME280;47021;51.340;12.432;2023-12-07T01:59:49;100353.03;;;8.37;61.36
61136;BME280;47021;51.340;12.432;2023-12-07T02:02:36;100352.94;;;8.26;61.62
61136;BME280;47021;51.340;12.432;2023-12-07T02:05:18;100351.84;;;8.53;61.23
61136;BME280;47021;51.340;12.432;2023-12-07T02:07:49;100352.59;;;8.43;61.03
61136;BME280;47021;51.340;12.432;2023-12-07T02:10:20;100364.56;;;8.45;61.39
61136;BME280;47021;51.340;12.432;2023-12-07T02:12:55;100368.69;;;8.48;60.76
61136;BME280;47021;51.340;12.432;2023-12-07T02:15:25;100378.50;;;8.44;60.94
61136;BME280;47021;51.340;12.432;2023-12-07T02:20:44;100382.88;;;8.19;61.84
61136;BME280;47021;51.340;12.432;2023-12-07T02:23:19;100386.53;;;8.04;62.40
61136;BME280;47021;51.340;12.432;2023-12-07T02:26:02;100375.19;;;8.17;62.06
61136;BME280;47021;51.340;12.432;2023-12-07T04:15:47;100436.53;;;8.70;60.72
61136;BME280;47021;51.340;12.432;2023-12-07T04:18:17;100435.44;;;8.85;60.04
61136;BME280;47021;51.340;12.432;2023-12-07T05:33:49;100475.94;;;8.40;61.86
61136;BME280;47021;51.340;12.432;2023-12-07T06:04:21;100482.69;;;8.30;62.67
61136;BME280;47021;51.340;12.432;2023-12-07T08:03:57;100543.66;;;8.89;60.41
61136;BME280;47021;51.340;12.432;2023-12-07T10:07:16;100599.78;;;9.18;59.10
61136;BME280;47021;51.340;12.432;2023-12-07T10:49:21;100594.53;;;9.44;58.43
61136;BME280;47021;51.340;12.432;2023-12-07T10:52:05;100595.25;;;9.46;58.13
61136;BME280;47021;51.340;12.432;2023-12-07T11:03:37;100587.75;;;9.29;58.57
61136;BME280;47021;51.340;12.432;2023-12-07T11:06:42;100587.28;;;9.11;59.17
61136;BME280;47021;51.340;12.432;2023-12-07T12:38:35;100538.53;;;10.08;56.42
61136;BME280;47021;51.340;12.432;2023-12-07T12:43:45;100529.34;;;10.26;55.78
61136;BME280;47021;51.340;12.432;2023-12-07T13:03:18;100524.78;;;11.07;53.32
61136;BME280;47021;51.340;12.432;2023-12-07T13:12:06;100533.78;;;10.47;54.79
61136;BME280;47021;51.340;12.432;2023-12-07T13:23:06;100520.34;;;11.18;53.72
61136;BME280;47021;51.340;12.432;2023-12-07T13:39:31;100525.38;;;11.10;53.06
61136;BME280;47021;51.340;12.432;2023-12-07T13:42:05;100512.88;;;11.14;53.02
61136;BME280;47021;51.340;12.432;2023-12-07T13:44:35;100513.03;;;10.90;53.88
61136;BME280;47021;51.340;12.432;2023-12-07T13:47:11;100517.28;;;11.13;53.53
61136;BME280;47021;51.340;12.432;2023-12-07T13:49:38;100517.03;;;11.16;53.01
61136;BME280;47021;51.340;12.432;2023-12-07T13:52:05;100518.59;;;11.08;52.91
61136;BME280;47021;51.340;12.432;2023-12-07T13:54:42;100518.00;;;11.15;52.78
61136;BME280;47021;51.340;12.432;2023-12-07T13:57:14;100517.06;;;11.05;52.73
61136;BME280;47021;51.340;12.432;2023-12-07T13:59:40;100519.44;;;11.08;53.11
61136;BME280;47021;51.340;12.432;2023-12-07T14:02:07;100522.53;;;11.02;53.24
61136;BME280;47021;51.340;12.432;2023-12-07T14:04:32;100528.00;;;10.77;52.87
61136;BME280;47021;51.340;12.432;2023-12-07T14:15:34;100530.94;;;10.73;51.83
61136;BME280;47021;51.340;12.432;2023-12-07T14:18:00;100534.97;;;10.54;52.29
61136;BME280;47021;51.340;12.432;2023-12-07T14:23:09;100528.81;;;10.55;51.96
61136;BME280;47021;51.340;12.432;2023-12-07T14:25:35;100526.31;;;10.87;52.03
61136;BME280;47021;51.340;12.432;2023-12-07T14:28:16;100524.78;;;10.85;52.03
61136;BME280;47021;51.340;12.432;2023-12-07T14:30:55;100523.59;;;10.89;52.32
61136;BME280;47021;51.340;12.432;2023-12-07T14:33:30;100525.03;;;10.93;52.35
61136;BME280;47021;51.340;12.432;2023-12-07T14:41:37;100537.00;;;10.73;53.07
61136;BME280;47021;51.340;12.432;2023-12-07T14:44:09;100532.03;;;10.70;53.40
61136;BME280;47021;51.340;12.432;2023-12-07T14:46:35;100527.63;;;10.59;53.88
61136;BME280;47021;51.340;12.432;2023-12-07T14:49:01;100530.94;;;10.61;53.96
61136;BME280;47021;51.340;12.432;2023-12-07T14:51:37;100529.16;;;10.62;54.05
61136;BME280;47021;51.340;12.432;2023-12-07T14:56:31;100519.91;;;10.47;54.80
61136;BME280;47021;51.340;12.432;2023-12-07T14:58:57;100526.88;;;10.35;55.02
61136;BME280;47021;51.340;12.432;2023-12-07T15:01:36;100525.22;;;10.45;54.34
61136;BME280;47021;51.340;12.432;2023-12-07T15:04:06;100524.03;;;10.38;54.81
61136;BME280;47021;51.340;12.432;2023-12-07T15:06:45;100519.06;;;10.35;55.06
61136;BME280;47021;51.340;12.432;2023-12-07T15:12:10;100517.50;;;10.33;54.89
61136;BME280;47021;51.340;12.432;2023-12-07T15:14:42;100516.44;;;10.35;54.36
61136;BME280;47021;51.340;12.432;2023-12-07T15:17:08;100518.22;;;10.24;54.88
61136;BME280;47021;51.340;12.432;2023-12-07T15:19:33;100517.38;;;10.23;54.57
61136;BME280;47021;51.340;12.432;2023-12-07T15:21:59;100525.69;;;10.28;54.46
61136;BME280;47021;51.340;12.432;2023-12-07T15:24:24;100520.56;;;10.27;54.34
61136;BME280;47021;51.340;12.432;2023-12-07T15:26:50;100516.16;;;10.16;54.86
61136;BME280;47021;51.340;12.432;2023-12-07T15:29:23;100513.84;;;10.01;55.53
61136;BME280;47021;51.340;12.432;2023-12-07T15:31:51;100510.34;;;9.89;55.43
61136;BME280;47021;51.340;12.432;2023-12-07T15:34:18;100506.03;;;9.77;55.92
61136;BME280;47021;51.340;12.432;2023-12-07T15:36:44;100504.94;;;9.68;55.97
61136;BME280;47021;51.340;12.432;2023-12-07T15:39:09;100511.00;;;9.45;56.19
61136;BME280;47021;51.340;12.432;2023-12-07T15:41:35;100513.91;;;9.53;56.73
61136;BME280;47021;51.340;12.432;2023-12-07T15:46:44;100512.44;;;9.49;56.46
61136;BME280;47021;51.340;12.432;2023-12-07T15:49:14;100509.09;;;9.47;56.63
61136;BME280;47021;51.340;12.432;2023-12-07T15:51:51;100508.28;;;9.47;56.29
61136;BME280;47021;51.340;12.432;2023-12-07T15:54:19;100520.59;;;9.45;55.91
61136;BME280;47021;51.340;12.432;2023-12-07T15:56:45;100524.25;;;9.42;56.16
61136;BME280;47021;51.340;12.432;2023-12-07T15:59:10;100525.59;;;9.48;55.73
61136;BME280;47021;51.340;12.432;2023-12-07T16:01:36;100524.31;;;9.53;55.72
61136;BME280;47021;51.340;12.432;2023-12-07T16:04:01;100520.25;;;9.49;55.86
61136;BME280;47021;51.340;12.432;2023-12-07T16:06:26;100528.69;;;9.53;55.93
61136;BME280;47021;51.340;12.432;2023-12-07T16:09:05;100525.97;;;9.54;56.09
61136;BME280;47021;51.340;12.432;2023-12-07T16:17:05;100532.81;;;9.44;56.13
61136;BME280;47021;51.340;12.432;2023-12-07T16:19:30;100523.69;;;9.50;55.88
61136;BME280;47021;51.340;12.432;2023-12-07T16:22:08;100531.13;;;9.43;55.74
61136;BME280;47021;51.340;12.432;2023-12-07T16:24:35;100534.28;;;9.59;55.38
61136;BME280;47021;51.340;12.432;2023-12-07T16:27:00;100529.63;;;9.52;55.72
61136;BME280;47021;51.340;12.432;2023-12-07T16:29:26;100535.09;;;9.49;55.71
61136;BME280;47021;51.340;12.432;2023-12-07T16:31:52;100532.16;;;9.53;55.49
61136;BME280;47021;51.340;12.432;2023-12-07T16:34:17;100535.28;;;9.46;55.86
61136;BME280;47021;51.340;12.432;2023-12-07T16:36:52;100527.66;;;9.19;56.71
61136;BME280;47021;51.340;12.432;2023-12-07T16:42:01;100532.78;;;9.20;57.05
61136;BME280;47021;51.340;12.432;2023-12-07T16:44:33;100527.50;;;9.33;56.29
61136;BME280;47021;51.340;12.432;2023-12-07T16:49:33;100526.03;;;9.42;56.57
61136;BME280;47021;51.340;12.432;2023-12-07T16:52:16;100525.69;;;9.46;56.62
61136;BME280;47021;51.340;12.432;2023-12-07T16:54:41;100535.56;;;9.54;55.80
61136;BME280;47021;51.340;12.432;2023-12-07T16:57:06;100538.69;;;9.22;56.64
61136;BME280;47021;51.340;12.432;2023-12-07T16:59:39;100536.03;;;9.35;56.50
61136;BME280;47021;51.340;12.432;2023-12-07T17:02:09;100542.72;;;9.39;56.20
61136;BME280;47021;51.340;12.432;2023-12-07T17:04:35;100554.69;;;9.42;56.52
61136;BME280;47021;51.340;12.432;2023-12-07T17:07:05;100546.13;;;9.40;55.69
61136;BME280;47021;51.340;12.432;2023-12-07T17:09:30;100546.56;;;9.46;55.76
61136;BME280;47021;51.340;12.432;2023-12-07T17:11:56;100543.63;;;9.51;55.49
61136;BME280;47021;51.340;12.432;2023-12-07T17:14:29;100525.59;;;9.48;56.07
61136;BME280;47021;51.340;12.432;2023-12-07T17:17:05;100528.69;;;9.53;56.15
61136;BME280;47021;51.340;12.432;2023-12-07T17:19:37;100543.63;;;9.51;56.09
61136;BME280;47021;51.340;12.432;2023-12-07T17:22:02;100541.44;;;9.45;56.72
61136;BME280;47021;51.340;12.432;2023-12-07T17:24:38;100538.28;;;9.52;56.72
61136;BME280;47021;51.340;12.432;2023-12-07T17:27:10;100536.56;;;9.40;57.47
61136;BME280;47021;51.340;12.432;2023-12-07T17:29:37;100530.75;;;9.37;57.76
61136;BME280;47021;51.340;12.432;2023-12-07T17:32:02;100518.88;;;9.33;57.14
61136;BME280;47021;51.340;12.432;2023-12-07T17:34:33;100524.75;;;9.23;57.13
61136;BME280;47021;51.340;12.432;2023-12-07T17:37:01;100525.53;;;9.37;57.19
61136;BME280;47021;51.340;12.432;2023-12-07T17:39:26;100538.25;;;9.29;56.70
61136;BME280;47021;51.340;12.432;2023-12-07T17:41:52;100540.94;;;9.40;56.82
61136;BME280;47021;51.340;12.432;2023-12-07T17:44:24;100534.78;;;9.41;56.36
61136;BME280;47021;51.340;12.432;2023-12-07T17:46:50;100528.78;;;9.28;57.47
61136;BME280;47021;51.340;12.432;2023-12-07T17:49:32;100525.56;;;9.24;57.12
61136;BME280;47021;51.340;12.432;2023-12-07T17:51:57;100522.53;;;9.30;56.91
61136;BME280;47021;51.340;12.432;2023-12-07T17:54:23;100528.78;;;9.28;56.59
61136;BME280;47021;51.340;12.432;2023-12-07T17:56:50;100522.91;;;9.37;56.45
61136;BME280;47021;51.340;12.432;2023-12-07T17:59:17;100519.69;;;9.33;56.89
61136;BME280;47021;51.340;12.432;2023-12-07T18:01:57;100518.97;;;9.31;57.25
61136;BME280;47021;51.340;12.432;2023-12-07T18:04:23;100516.19;;;9.21;57.02
61136;BME280;47021;51.340;12.432;2023-12-07T18:09:32;100512.91;;;9.31;56.45
61136;BME280;47021;51.340;12.432;2023-12-07T18:11:58;100496.47;;;9.30;57.01
61136;BME280;47021;51.340;12.432;2023-12-07T18:14:23;100500.78;;;9.18;56.80
61136;BME280;47021;51.340;12.432;2023-12-07T18:19:39;100491.53;;;9.38;55.81
61136;BME280;47021;51.340;12.432;2023-12-07T18:22:09;100487.75;;;9.42;56.01
61136;BME280;47021;51.340;12.432;2023-12-07T18:24:41;100480.06;;;9.41;55.94
61136;BME280;47021;51.340;12.432;2023-12-07T18:27:06;100477.91;;;9.35;56.55
61136;BME280;47021;51.340;12.432;2023-12-07T18:29:42;100480.66;;;9.20;56.85
61136;BME280;47021;51.340;12.432;2023-12-07T18:32:07;100479.47;;;9.01;57.11
61136;BME280;47021;51.340;12.432;2023-12-07T18:34:33;100476.59;;;8.93;57.66
61136;BME280;47021;51.340;12.432;2023-12-07T18:36:59;100464.16;;;8.96;57.34
61136;BME280;47021;51.340;12.432;2023-12-07T18:39:25;100469.38;;;8.96;56.90
61136;BME280;47021;51.340;12.432;2023-12-07T18:41:51;100462.72;;;8.92;56.75
61136;BME280;47021;51.340;12.432;2023-12-07T18:44:17;100459.69;;;8.98;56.21
61136;BME280;47021;51.340;12.432;2023-12-07T18:46:42;100457.50;;;8.92;56.70
61136;BME280;47021;51.340;12.432;2023-12-07T18:49:11;100465.44;;;8.29;57.42
61136;BME280;47021;51.340;12.432;2023-12-07T18:51:44;100464.56;;;8.04;58.02
61136;BME280;47021;51.340;12.432;2023-12-07T18:54:11;100456.44;;;8.08;58.21
61136;BME280;47021;51.340;12.432;2023-12-07T18:56:37;100458.28;;;7.94;58.92
61136;BME280;47021;51.340;12.432;2023-12-07T18:59:05;100458.81;;;7.99;58.71
61136;BME280;47021;51.340;12.432;2023-12-07T19:01:30;100454.78;;;7.95;58.48
61136;BME280;47021;51.340;12.432;2023-12-07T19:03:57;100449.97;;;7.76;59.03
61136;BME280;47021;51.340;12.432;2023-12-07T19:06:22;100450.94;;;7.61;59.62
61136;BME280;47021;51.340;12.432;2023-12-07T19:09:00;100457.00;;;7.61;59.21
61136;BME280;47021;51.340;12.432;2023-12-07T19:11:30;100455.50;;;7.45;59.23
61136;BME280;47021;51.340;12.432;2023-12-07T19:13:58;100452.31;;;7.66;58.39
61136;BME280;47021;51.340;12.432;2023-12-07T19:16:31;100447.25;;;7.65;58.33
61136;BME280;47021;51.340;12.432;2023-12-07T19:19:02;100440.41;;;7.37;59.15
61136;BME280;47021;51.340;12.432;2023-12-07T19:21:27;100436.25;;;7.35;59.00
61136;BME280;47021;51.340;12.432;2023-12-07T19:26:41;100432.31;;;7.15;59.86
61136;BME280;47021;51.340;12.432;2023-12-07T19:30:15;100434.00;;;6.89;60.38
61136;BME280;47021;51.340;12.432;2023-12-07T19:34:59;100411.91;;;7.23;59.36
61136;BME280;47021;51.340;12.432;2023-12-07T19:37:25;100410.56;;;7.30;58.97
61136;BME280;47021;51.340;12.432;2023-12-07T19:39:58;100415.31;;;6.97;59.85
61136;BME280;47021;51.340;12.432;2023-12-07T19:42:23;100408.41;;;6.83;60.23
61136;BME280;47021;51.340;12.432;2023-12-07T19:44:56;100399.97;;;6.53;61.20
61136;BME280;47021;51.340;12.432;2023-12-07T19:47:22;100394.22;;;6.48;61.32
61136;BME280;47021;51.340;12.432;2023-12-07T19:49:52;100390.09;;;6.72;60.68
61136;BME280;47021;51.340;12.432;2023-12-07T19:52:18;100390.22;;;6.43;61.03
61136;BME280;47021;51.340;12.432;2023-12-07T19:54:49;100394.78;;;6.53;61.07
61136;BME280;47021;51.340;12.432;2023-12-07T19:57:17;100383.59;;;6.79;60.24
61136;BME280;47021;51.340;12.432;2023-12-07T19:59:52;100387.19;;;6.77;60.26
61136;BME280;47021;51.340;12.432;2023-12-07T20:02:31;100389.63;;;6.66;60.29
61136;BME280;47021;51.340;12.432;2023-12-07T20:05:05;100383.88;;;6.75;60.00
61136;BME280;47021;51.340;12.432;2023-12-07T20:07:33;100383.69;;;6.78;60.04
61136;BME280;47021;51.340;12.432;2023-12-07T20:09:58;100379.56;;;6.61;60.09
61136;BME280;47021;51.340;12.432;2023-12-07T20:12:25;100396.31;;;6.56;60.44
61136;BME280;47021;51.340;12.432;2023-12-07T20:14:57;100377.72;;;6.49;60.40
61136;BME280;47021;51.340;12.432;2023-12-07T20:17:28;100387.72;;;6.55;60.35
61136;BME280;47021;51.340;12.432;2023-12-07T20:19:55;100383.28;;;6.43;60.94
61136;BME280;47021;51.340;12.432;2023-12-07T20:22:34;100381.69;;;6.55;60.51
61136;BME280;47021;51.340;12.432;2023-12-07T20:25:01;100382.84;;;6.36;61.06
61136;BME280;47021;51.340;12.432;2023-12-07T20:27:32;100374.78;;;6.13;61.63
61136;BME280;47021;51.340;12.432;2023-12-07T20:30:08;100376.81;;;6.22;61.68
61136;BME280;47021;51.340;12.432;2023-12-07T20:35:17;100370.94;;;6.47;60.38
61136;BME280;47021;51.340;12.432;2023-12-07T20:37:50;100367.78;;;6.56;59.89
61136;BME280;47021;51.340;12.432;2023-12-07T20:40:16;100370.50;;;6.54;60.04
61136;BME280;47021;51.340;12.432;2023-12-07T20:42:46;100360.69;;;6.45;60.22
61136;BME280;47021;51.340;12.432;2023-12-07T20:45:29;100361.00;;;6.12;61.39
61136;BME280;47021;51.340;12.432;2023-12-07T20:50:59;100358.94;;;6.31;60.86
61136;BME280;47021;51.340;12.432;2023-12-07T20:53:31;100360.72;;;6.17;60.86
61136;BME280;47021;51.340;12.432;2023-12-07T20:55:59;100359.13;;;6.14;60.94
61136;BME280;47021;51.340;12.432;2023-12-07T20:58:31;100366.00;;;6.01;61.22
61136;BME280;47021;51.340;12.432;2023-12-07T21:01:07;100355.34;;;5.92;61.35
61136;BME280;47021;51.340;12.432;2023-12-07T21:03:47;100351.56;;;5.97;61.39
61136;BME280;47021;51.340;12.432;2023-12-07T21:06:28;100344.81;;;5.95;61.29
61136;BME280;47021;51.340;12.432;2023-12-07T21:09:01;100351.28;;;5.88;61.46
61136;BME280;47021;51.340;12.432;2023-12-07T21:11:27;100348.97;;;5.97;61.52
61136;BME280;47021;51.340;12.432;2023-12-07T21:13:56;100354.59;;;5.90;61.19
61136;BME280;47021;51.340;12.432;2023-12-07T21:16:39;100342.84;;;5.98;61.49
61136;BME280;47021;51.340;12.432;2023-12-07T21:19:10;100335.91;;;5.99;60.95
61136;BME280;47021;51.340;12.432;2023-12-07T21:21:37;100337.03;;;5.95;61.31
61136;BME280;47021;51.340;12.432;2023-12-07T21:26:56;100338.41;;;6.14;60.35
61136;BME280;47021;51.340;12.432;2023-12-07T21:29:27;100336.31;;;5.93;60.82
61136;BME280;47021;51.340;12.432;2023-12-07T21:31:58;100337.09;;;5.79;61.20
61136;BME280;47021;51.340;12.432;2023-12-07T21:34:25;100336.84;;;6.12;60.66
61136;BME280;47021;51.340;12.432;2023-12-07T21:39:37;100326.50;;;5.98;60.75
61136;BME280;47021;51.340;12.432;2023-12-07T21:42:03;100321.66;;;6.06;60.19
61136;BME280;47021;51.340;12.432;2023-12-07T21:44:28;100326.38;;;5.99;60.59
61136;BME280;47021;51.340;12.432;2023-12-07T21:46:54;100314.84;;;5.91;60.91
61136;BME280;47021;51.340;12.432;2023-12-07T21:49:34;100317.88;;;5.97;60.65
61136;BME280;47021;51.340;12.432;2023-12-07T21:52:00;100315.34;;;5.82;61.02
61136;BME280;47021;51.340;12.432;2023-12-07T21:54:37;100320.53;;;5.67;61.41
61136;BME280;47021;51.340;12.432;2023-12-07T21:57:10;100328.06;;;6.00;60.44
61136;BME280;47021;51.340;12.432;2023-12-07T21:59:45;100324.44;;;6.03;60.26
61136;BME280;47021;51.340;12.432;2023-12-07T22:02:13;100330.34;;;6.19;59.78
61136;BME280;47021;51.340;12.432;2023-12-07T22:04:39;100327.97;;;6.02;60.06
61136;BME280;47021;51.340;12.432;2023-12-07T22:07:14;100327.38;;;5.83;60.59
61136;BME280;47021;51.340;12.432;2023-12-07T22:12:30;100320.19;;;5.88;60.43
61136;BME280;47021;51.340;12.432;2023-12-07T22:15:11;100322.41;;;5.94;60.37
61136;BME280;47021;51.340;12.432;2023-12-07T22:20:14;100326.38;;;5.85;59.78
61136;BME280;47021;51.340;12.432;2023-12-07T22:22:49;100325.41;;;5.58;60.91
61136;BME280;47021;51.340;12.432;2023-12-07T22:25:16;100326.41;;;5.41;61.48
61136;BME280;47021;51.340;12.432;2023-12-07T22:27:41;100329.28;;;5.51;61.35
61136;BME280;47021;51.340;12.432;2023-12-07T22:30:20;100314.66;;;5.36;61.52
61136;BME280;47021;51.340;12.432;2023-12-07T22:32:59;100322.91;;;5.42;61.63
61136;BME280;47021;51.340;12.432;2023-12-07T22:35:24;100307.34;;;5.28;61.76
61136;BME280;47021;51.340;12.432;2023-12-07T22:38:05;100309.75;;;5.31;61.65
61136;BME280;47021;51.340;12.432;2023-12-07T22:40:38;100310.16;;;5.53;61.16
61136;BME280;47021;51.340;12.432;2023-12-07T22:43:09;100304.59;;;5.45;61.36
61136;BME280;47021;51.340;12.432;2023-12-07T22:45:40;100304.59;;;5.45;60.85
61136;BME280;47021;51.340;12.432;2023-12-07T22:48:05;100295.19;;;5.58;60.94
61136;BME280;47021;51.340;12.432;2023-12-07T22:50:33;100298.97;;;5.67;60.40
61136;BME280;47021;51.340;12.432;2023-12-07T22:55:45;100285.66;;;5.59;60.65
61136;BME280;47021;51.340;12.432;2023-12-07T22:58:11;100276.22;;;5.58;60.45
61136;BME280;47021;51.340;12.432;2023-12-07T23:03:23;100267.25;;;5.49;60.84
61136;BME280;47021;51.340;12.432;2023-12-07T23:05:54;100258.81;;;5.60;60.46
61136;BME280;47021;51.340;12.432;2023-12-07T23:11:04;100251.22;;;5.71;59.75
61136;BME280;47021;51.340;12.432;2023-12-07T23:13:41;100247.00;;;5.56;60.07
61136;BME280;47021;51.340;12.432;2023-12-07T23:16:13;100246.88;;;5.71;59.86
61136;BME280;47021;51.340;12.432;2023-12-07T23:18:51;100241.25;;;5.79;59.44
61136;BME280;47021;51.340;12.432;2023-12-07T23:21:18;100239.41;;;5.67;59.45
61136;BME280;47021;51.340;12.432;2023-12-07T23:23:44;100242.72;;;5.83;59.47
61136;BME280;47021;51.340;12.432;2023-12-07T23:26:12;100229.59;;;5.72;59.31
61136;BME280;47021;51.340;12.432;2023-12-07T23:28:39;100230.25;;;5.61;59.47
61136;BME280;47021;51.340;12.432;2023-12-07T23:31:11;100220.53;;;5.79;59.17
61136;BME280;47021;51.340;12.432;2023-12-07T23:33:39;100218.50;;;5.56;59.68
61136;BME280;47021;51.340;12.432;2023-12-07T23:36:04;100207.88;;;5.60;59.70
61136;BME280;47021;51.340;12.432;2023-12-07T23:38:30;100204.53;;;5.58;59.75
61136;BME280;47021;51.340;12.432;2023-12-07T23:40:58;100198.50;;;5.72;59.07
61136;BME280;47021;51.340;12.432;2023-12-07T23:43:30;100201.09;;;5.72;59.06
61136;BME280;47021;51.340;12.432;2023-12-07T23:45:55;100197.88;;;5.54;59.27
61136;BME280;47021;51.340;12.432;2023-12-07T23:48:22;100196.09;;;5.55;59.32
61136;BME280;47021;51.340;12.432;2023-12-07T23:50:49;100192.16;;;5.49;59.15
61136;BME280;47021;51.340;12.432;2023-12-07T23:53:21;100185.78;;;5.27;59.80
61136;BME280;47021;51.340;12.432;2023-12-07T23:55:52;100189.91;;;4.57;62.26
61136;BME280;47021;51.340;12.432;2023-12-07T23:58:20;100184.91;;;4.98;61.21
